createdAt,value
2018-09-19T00:00:34.464Z,0
2018-09-19T00:01:34.796Z,0
2018-09-19T00:02:34.701Z,0
2018-09-19T00:03:34.696Z,0
2018-09-19T00:04:33.917Z,0
2018-09-19T00:05:34.174Z,0
2018-09-19T00:06:34.687Z,0
2018-09-19T00:07:34.440Z,0
2018-09-19T00:08:34.671Z,0
2018-09-19T00:09:34.672Z,0
2018-09-19T00:10:34.399Z,0
2018-09-19T00:11:34.149Z,0
2018-09-19T00:12:34.659Z,0
2018-09-19T00:13:34.726Z,0
2018-09-19T00:14:34.643Z,0
2018-09-19T00:15:34.638Z,0
2018-09-19T00:16:34.637Z,0
2018-09-19T00:17:34.355Z,0
2018-09-19T00:18:34.615Z,0
2018-09-19T00:19:34.613Z,0
2018-09-19T00:20:34.617Z,0
2018-09-19T00:21:34.351Z,0
2018-09-19T00:22:34.642Z,0
2018-09-19T00:23:34.343Z,0
2018-09-19T00:24:34.582Z,0
2018-09-19T00:25:34.329Z,0
2018-09-19T00:26:34.312Z,0
2018-09-19T00:27:34.315Z,0
2018-09-19T00:28:34.568Z,0
2018-09-19T00:29:34.567Z,0
2018-09-19T00:30:34.563Z,0
2018-09-19T00:31:34.569Z,0
2018-09-19T00:32:34.034Z,0
2018-09-19T00:33:34.536Z,0
2018-09-19T00:34:34.266Z,0
2018-09-19T00:35:34.536Z,0
2018-09-19T00:36:34.002Z,0
2018-09-19T00:37:34.252Z,0
2018-09-19T00:38:34.251Z,0
2018-09-19T00:39:34.269Z,0
2018-09-19T00:40:34.584Z,0
2018-09-19T00:41:33.991Z,0
2018-09-19T00:42:34.254Z,0
2018-09-19T00:43:34.475Z,0
2018-09-19T00:44:34.259Z,0
2018-09-19T00:45:34.521Z,0
2018-09-19T00:46:34.201Z,0
2018-09-19T00:47:34.501Z,0
2018-09-19T00:48:34.452Z,0
2018-09-19T00:49:34.440Z,0
2018-09-19T00:50:34.175Z,0
2018-09-19T00:51:34.428Z,0
2018-09-19T00:52:34.433Z,0
2018-09-19T00:53:34.414Z,0
2018-09-19T00:54:34.469Z,0
2018-09-19T00:55:34.152Z,0
2018-09-19T00:56:34.465Z,0
2018-09-19T00:57:34.138Z,0
2018-09-19T00:58:34.126Z,0
2018-09-19T00:59:34.383Z,0
2018-09-19T01:00:34.403Z,0
2018-09-19T01:01:34.446Z,0
2018-09-19T01:02:34.363Z,0
2018-09-19T01:03:34.105Z,0
2018-09-19T01:04:34.370Z,0
2018-09-19T01:05:34.373Z,0
2018-09-19T01:06:34.367Z,0
2018-09-19T01:07:34.331Z,0
2018-09-19T01:08:34.399Z,0
2018-09-19T01:09:34.329Z,0
2018-09-19T01:10:34.388Z,0
2018-09-19T01:11:34.106Z,0
2018-09-19T01:16:04.874Z,0
2018-09-19T01:16:20.771Z,0
2018-09-19T01:17:20.721Z,0
2018-09-19T01:18:23.727Z,0
2018-09-19T01:19:20.475Z,0
2018-09-19T01:20:20.712Z,0
2018-09-19T01:21:20.687Z,0
2018-09-19T01:22:20.678Z,0
2018-09-19T01:23:20.739Z,0
2018-09-19T01:24:20.683Z,0
2018-09-19T01:25:20.676Z,0
2018-09-19T01:26:20.654Z,0
2018-09-19T01:27:20.394Z,0
2018-09-19T01:28:20.382Z,0
2018-09-19T01:29:20.376Z,0
2018-09-19T01:30:20.645Z,0
2018-09-19T01:31:20.707Z,0
2018-09-19T01:32:20.691Z,0
2018-09-19T01:33:20.360Z,0
2018-09-19T01:34:20.620Z,0
2018-09-19T01:35:20.613Z,0
2018-09-19T01:36:20.341Z,0
2018-09-19T01:37:20.329Z,0
2018-09-19T01:38:20.602Z,0
2018-09-19T01:39:20.572Z,0
2018-09-19T01:40:20.325Z,0
2018-09-19T01:41:20.582Z,0
2018-09-19T01:42:20.039Z,0
2018-09-19T01:43:20.295Z,0
2018-09-19T01:44:20.551Z,0
2018-09-19T01:45:20.611Z,0
2018-09-19T01:46:20.550Z,0
2018-09-19T01:47:20.272Z,0
2018-09-19T01:48:20.272Z,0
2018-09-19T01:49:20.532Z,0
2018-09-19T01:50:20.523Z,0
2018-09-19T01:51:20.522Z,0
2018-09-19T01:52:20.636Z,0
2018-09-19T01:53:20.504Z,0
2018-09-19T01:54:20.515Z,0
2018-09-19T01:55:20.218Z,0
2018-09-19T01:56:20.553Z,0
2018-09-19T01:57:20.534Z,0
2018-09-19T01:58:20.464Z,0
2018-09-19T01:59:20.473Z,0
2018-09-19T02:00:20.478Z,0
2018-09-19T02:01:20.450Z,0
2018-09-19T02:02:20.197Z,0
2018-09-19T02:03:20.195Z,0
2018-09-19T02:04:20.174Z,0
2018-09-19T02:05:20.421Z,0
2018-09-19T02:06:20.421Z,0
2018-09-19T02:07:20.425Z,0
2018-09-19T02:08:20.402Z,0
2018-09-19T02:09:20.404Z,0
2018-09-19T02:10:20.196Z,0
2018-09-19T02:11:20.133Z,0
2018-09-19T02:12:20.126Z,0
2018-09-19T02:13:20.384Z,0
2018-09-19T02:14:20.377Z,0
2018-09-19T02:15:20.372Z,0
2018-09-19T02:16:20.394Z,0
2018-09-19T02:17:20.357Z,0
2018-09-19T02:18:20.091Z,0
2018-09-19T02:19:20.334Z,0
2018-09-19T02:20:20.077Z,0
2018-09-19T02:21:20.376Z,0
2018-09-19T02:22:20.348Z,0
2018-09-19T02:23:20.325Z,0
2018-09-19T02:24:20.320Z,0
2018-09-19T02:25:20.300Z,0
2018-09-19T02:26:20.304Z,0
2018-09-19T02:27:20.299Z,0
2018-09-19T02:28:20.383Z,0
2018-09-19T02:29:20.280Z,0
2018-09-19T02:30:20.307Z,0
2018-09-19T02:31:20.293Z,0
2018-09-19T02:32:20.015Z,0
2018-09-19T02:33:20.266Z,0
2018-09-19T02:34:20.254Z,0
2018-09-19T02:35:19.999Z,0
2018-09-19T02:36:19.971Z,0
2018-09-19T02:37:20.312Z,0
2018-09-19T02:38:20.241Z,0
2018-09-19T02:39:20.216Z,0
2018-09-19T02:40:20.221Z,0
2018-09-19T02:41:20.259Z,0
2018-09-19T02:42:20.228Z,0
2018-09-19T02:43:20.210Z,0
2018-09-19T02:44:20.193Z,0
2018-09-19T02:45:20.194Z,0
2018-09-19T02:46:20.178Z,0
2018-09-19T02:47:20.196Z,0
2018-09-19T02:48:20.171Z,0
2018-09-19T02:49:20.178Z,0
2018-09-19T02:50:20.156Z,0
2018-09-19T02:51:19.636Z,0
2018-09-19T02:52:20.153Z,0
2018-09-19T02:53:20.163Z,0
2018-09-19T02:54:20.124Z,0
2018-09-19T02:55:20.131Z,0
2018-09-19T02:56:20.117Z,0
2018-09-19T02:57:19.589Z,0
2018-09-19T02:58:19.840Z,0
2018-09-19T02:59:19.829Z,0
2018-09-19T03:00:20.088Z,0
2018-09-19T03:01:19.852Z,0
2018-09-19T03:02:20.111Z,0
2018-09-19T03:03:20.068Z,0
2018-09-19T03:04:20.060Z,0
2018-09-19T03:05:19.549Z,0
2018-09-19T03:06:20.056Z,0
2018-09-19T03:07:20.046Z,0
2018-09-19T03:08:20.034Z,0
2018-09-19T03:09:20.037Z,0
2018-09-19T03:10:20.059Z,0
2018-09-19T03:11:19.803Z,0
2018-09-19T03:12:20.015Z,0
2018-09-19T03:13:20.003Z,0
2018-09-19T03:14:19.753Z,0
2018-09-19T03:15:20.005Z,0
2018-09-19T03:16:19.997Z,0
2018-09-19T03:17:20.498Z,0
2018-09-19T03:18:19.978Z,0
2018-09-19T03:19:19.971Z,0
2018-09-19T03:20:19.698Z,0
2018-09-19T03:21:19.955Z,0
2018-09-19T03:22:19.701Z,0
2018-09-19T03:23:19.953Z,0
2018-09-19T03:24:19.954Z,0
2018-09-19T03:25:19.943Z,0
2018-09-19T03:26:19.935Z,0
2018-09-19T03:27:19.915Z,0
2018-09-19T03:28:19.911Z,0
2018-09-19T03:29:19.903Z,0
2018-09-19T03:30:19.902Z,0
2018-09-19T03:31:19.629Z,0
2018-09-19T03:32:19.929Z,0
2018-09-19T03:33:19.893Z,0
2018-09-19T03:34:19.875Z,0
2018-09-19T03:35:20.075Z,0
2018-09-19T03:36:19.862Z,0
2018-09-19T03:37:19.607Z,0
2018-09-19T03:38:19.886Z,0
2018-09-19T03:39:19.846Z,0
2018-09-19T03:40:19.844Z,0
2018-09-19T03:41:19.882Z,0
2018-09-19T03:42:19.560Z,0
2018-09-19T03:43:19.819Z,0
2018-09-19T03:44:19.841Z,0
2018-09-19T03:45:19.817Z,0
2018-09-19T03:46:19.796Z,0
2018-09-19T03:47:19.779Z,0
2018-09-19T03:48:19.780Z,0
2018-09-19T03:49:19.767Z,0
2018-09-19T03:50:19.771Z,0
2018-09-19T03:51:21.564Z,0
2018-09-19T03:52:19.749Z,0
2018-09-19T03:53:19.746Z,0
2018-09-19T03:54:19.497Z,0
2018-09-19T03:57:17.287Z,0
2018-09-19T03:58:17.743Z,0
2018-09-19T03:59:17.278Z,0
2018-09-19T04:01:52.769Z,0
2018-09-19T04:02:02.407Z,0
2018-09-19T04:03:31.960Z,0
2018-09-19T04:04:02.645Z,0
2018-09-19T04:05:02.392Z,0
2018-09-19T04:06:02.635Z,0
2018-09-19T04:08:25.521Z,0
2018-09-19T04:08:34.989Z,0
2018-09-19T04:09:34.981Z,0
2018-09-19T04:10:35.228Z,0
2018-09-19T04:11:35.232Z,0
2018-09-19T04:12:35.043Z,0
2018-09-19T04:13:34.694Z,0
2018-09-19T04:14:35.204Z,0
2018-09-19T04:15:35.209Z,0
2018-09-19T04:16:35.211Z,0
2018-09-19T04:17:35.261Z,0
2018-09-19T04:18:34.935Z,0
2018-09-19T04:19:34.913Z,4
2018-09-19T04:20:35.181Z,4
2018-09-19T04:21:35.155Z,0
2018-09-19T04:22:35.149Z,0
2018-09-19T04:23:34.900Z,4
2018-09-19T04:24:34.880Z,4
2018-09-19T04:25:35.141Z,4
2018-09-19T04:26:34.887Z,4
2018-09-19T04:27:35.109Z,4
2018-09-19T04:28:35.105Z,8
2018-09-19T04:29:34.852Z,8
2018-09-19T04:30:34.842Z,8
2018-09-19T04:31:35.082Z,12
2018-09-19T04:32:34.933Z,12
2018-09-19T04:33:34.582Z,16
2018-09-19T04:34:34.839Z,20
2018-09-19T04:35:35.088Z,24
2018-09-19T04:36:35.066Z,28
2018-09-19T04:37:34.792Z,32
2018-09-19T04:38:35.049Z,36
2018-09-19T04:39:35.041Z,40
2018-09-19T04:40:34.769Z,48
2018-09-19T04:41:35.052Z,56
2018-09-19T04:42:34.515Z,64
2018-09-19T04:43:35.014Z,72
2018-09-19T04:44:35.017Z,84
2018-09-19T04:45:35.003Z,92
2018-09-19T04:46:34.471Z,104
2018-09-19T04:47:34.465Z,112
2018-09-19T04:48:34.987Z,120
2018-09-19T04:49:34.975Z,132
2018-09-19T04:50:35.026Z,148
2018-09-19T04:51:35.619Z,160
2018-09-19T04:55:16.454Z,260
2018-09-19T04:55:32.225Z,268
2018-09-19T04:56:31.967Z,304
2018-09-19T04:57:31.961Z,336
2018-09-19T04:58:32.480Z,368
2018-09-19T04:59:32.465Z,404
2018-09-19T05:00:32.596Z,452
2018-09-19T05:01:32.457Z,512
2018-09-19T05:02:32.453Z,568
2018-09-19T05:03:32.195Z,600
2018-09-19T05:04:32.435Z,608
2018-09-19T05:05:32.561Z,608
2018-09-19T05:06:32.195Z,600
2018-09-19T05:07:32.528Z,600
2018-09-19T05:08:32.426Z,596
2018-09-19T05:09:32.167Z,596
2018-09-19T05:10:31.890Z,596
2018-09-19T05:11:32.532Z,596
2018-09-19T05:12:32.400Z,608
2018-09-19T05:13:32.391Z,612
2018-09-19T05:14:32.395Z,616
2018-09-19T05:15:32.364Z,624
2018-09-19T05:16:32.358Z,640
2018-09-19T05:17:32.404Z,664
2018-09-19T05:18:32.351Z,688
2018-09-19T05:19:31.830Z,712
2018-09-19T05:20:32.347Z,740
2018-09-19T05:21:32.335Z,764
2018-09-19T05:22:32.333Z,788
2018-09-19T05:23:32.322Z,812
2018-09-19T05:24:32.322Z,832
2018-09-19T05:25:32.317Z,852
2018-09-19T05:26:32.297Z,868
2018-09-19T05:27:32.056Z,892
2018-09-19T05:28:32.293Z,912
2018-09-19T05:29:31.765Z,940
2018-09-19T05:30:32.024Z,964
2018-09-19T05:31:32.395Z,996
2018-09-19T05:32:32.258Z,1032
2018-09-19T05:33:32.264Z,1072
2018-09-19T05:34:32.002Z,1112
2018-09-19T05:35:32.245Z,1140
2018-09-19T05:36:31.987Z,1164
2018-09-19T05:37:32.030Z,1188
2018-09-19T05:38:32.233Z,1224
2018-09-19T05:39:32.232Z,1272
2018-09-19T05:40:32.226Z,1316
2018-09-19T05:41:31.975Z,1352
2018-09-19T05:42:32.231Z,1380
2018-09-19T05:43:32.210Z,1384
2018-09-19T05:44:32.201Z,1376
2018-09-19T05:52:45.188Z,1148
2018-09-19T05:53:45.410Z,1028
2018-09-19T05:54:45.688Z,956
2018-09-19T05:55:44.916Z,944
2018-09-19T05:56:45.446Z,968
2018-09-19T06:08:50.998Z,1616
2018-09-19T06:09:52.184Z,1728
2018-09-19T06:10:50.726Z,1816
2018-09-19T06:11:50.975Z,1896
2018-09-19T06:12:51.284Z,1944
2018-09-19T06:13:50.985Z,1992
2018-09-19T06:14:50.985Z,2024
2018-09-19T06:15:50.695Z,2040
2018-09-19T06:16:50.961Z,2096
2018-09-19T06:17:50.958Z,2216
2018-09-19T06:18:51.031Z,2416
2018-09-19T06:19:50.683Z,2664
2018-09-19T06:20:50.949Z,3024
2018-09-19T06:21:50.676Z,3456
2018-09-19T06:22:50.673Z,3768
2018-09-19T06:23:50.664Z,3904
2018-09-19T06:24:50.669Z,3980
2018-09-19T06:25:50.917Z,3956
2018-09-19T06:26:50.714Z,3736
2018-09-19T06:27:50.987Z,3332
2018-09-19T06:28:50.892Z,2904
2018-09-19T06:29:50.906Z,2412
2018-09-19T06:30:50.898Z,1912
2018-09-19T06:31:50.889Z,1564
2018-09-19T06:32:51.130Z,1336
2018-09-19T06:33:50.883Z,1204
2018-09-19T06:34:50.628Z,1092
2018-09-19T06:35:50.868Z,1000
2018-09-19T06:36:50.949Z,936
2018-09-19T06:37:50.878Z,856
2018-09-19T06:38:50.868Z,788
2018-09-19T06:39:50.605Z,756
2018-09-19T06:40:51.167Z,732
2018-09-19T06:41:50.588Z,692
2018-09-19T06:42:50.870Z,644
2018-09-19T06:43:50.852Z,608
2018-09-19T06:44:50.576Z,588
2018-09-19T06:45:51.174Z,568
2018-09-19T06:48:29.392Z,520
2018-09-19T06:48:39.282Z,520
2018-09-19T06:49:39.058Z,520
2018-09-19T06:50:39.021Z,524
2018-09-19T06:51:39.272Z,524
2018-09-19T06:52:39.579Z,528
2018-09-19T06:53:39.272Z,528
2018-09-19T06:54:39.257Z,540
2018-09-19T06:55:39.285Z,556
2018-09-19T06:56:38.988Z,568
2018-09-19T06:57:39.237Z,580
2018-09-19T06:58:39.236Z,588
2018-09-19T06:59:39.380Z,592
2018-09-19T07:00:39.238Z,600
2018-09-19T07:01:39.230Z,608
2018-09-19T07:02:38.974Z,620
2018-09-19T07:03:39.229Z,640
2018-09-19T07:04:39.208Z,660
2018-09-19T07:05:39.249Z,680
2018-09-19T07:06:38.956Z,704
2018-09-19T07:07:38.938Z,732
2018-09-19T07:08:39.196Z,744
2018-09-19T07:09:39.184Z,760
2018-09-19T07:10:39.112Z,780
2018-09-19T07:11:38.922Z,792
2018-09-19T07:12:39.219Z,808
2018-09-19T07:13:39.165Z,824
2018-09-19T07:14:39.185Z,844
2018-09-19T07:15:39.152Z,872
2018-09-19T07:16:39.149Z,904
2018-09-19T07:17:38.889Z,932
2018-09-19T07:18:39.147Z,960
2018-09-19T07:19:38.884Z,988
2018-09-19T07:20:39.145Z,1016
2018-09-19T07:21:38.879Z,1036
2018-09-19T07:22:39.143Z,1060
2018-09-19T07:23:39.299Z,1080
2018-09-19T07:24:38.857Z,1096
2018-09-19T07:25:38.875Z,1112
2018-09-19T07:26:39.126Z,1132
2018-09-19T07:27:38.850Z,1156
2018-09-19T07:28:38.841Z,1176
2018-09-19T07:29:39.093Z,1204
2018-09-19T07:30:38.864Z,1228
2018-09-19T07:31:39.092Z,1256
2018-09-19T07:32:39.083Z,1284
2018-09-19T07:33:39.081Z,1316
2018-09-19T07:34:39.064Z,1352
2018-09-19T07:35:38.853Z,1388
2018-09-19T07:36:39.093Z,1420
2018-09-19T07:37:38.792Z,1460
2018-09-19T07:38:39.092Z,1496
2018-09-19T07:39:39.047Z,1532
2018-09-19T07:40:39.046Z,1560
2018-09-19T07:41:39.030Z,1576
2018-09-19T07:42:39.052Z,1580
2018-09-19T07:43:38.807Z,1580
2018-09-19T07:44:39.021Z,1576
2018-09-19T07:45:38.504Z,1580
2018-09-19T07:46:39.445Z,1580
2018-09-19T07:47:39.003Z,1580
2018-09-19T07:48:39.022Z,1584
2018-09-19T07:49:38.737Z,1584
2018-09-19T07:50:39.014Z,1568
2018-09-19T07:51:38.730Z,1548
2018-09-19T07:52:38.988Z,1528
2018-09-19T07:53:38.723Z,1516
2018-09-19T07:54:39.297Z,1504
2018-09-19T07:55:39.013Z,1492
2018-09-19T07:56:38.705Z,1488
2018-09-19T07:57:38.702Z,1496
2018-09-19T07:58:38.944Z,1516
2018-09-19T07:59:38.956Z,1528
2018-09-19T08:00:39.408Z,1544
2018-09-19T08:01:38.935Z,1552
2018-09-19T08:02:38.932Z,1548
2018-09-19T08:03:38.925Z,1548
2018-09-19T08:04:38.688Z,1568
2018-09-19T08:05:38.925Z,1600
2018-09-19T08:06:38.715Z,1628
2018-09-19T08:07:38.652Z,1648
2018-09-19T08:08:38.642Z,1672
2018-09-19T08:09:38.909Z,1692
2018-09-19T08:10:38.648Z,1708
2018-09-19T08:11:38.625Z,1740
2018-09-19T08:12:38.892Z,1780
2018-09-19T08:13:38.875Z,1824
2018-09-19T08:14:38.885Z,1868
2018-09-19T08:15:38.615Z,1920
2018-09-19T08:16:38.690Z,1988
2018-09-19T08:17:38.866Z,2076
2018-09-19T08:18:38.859Z,2148
2018-09-19T08:19:38.849Z,2224
2018-09-19T08:20:38.895Z,2324
2018-09-19T08:21:38.863Z,2448
2018-09-19T08:22:38.939Z,2596
2018-09-19T08:23:38.580Z,2748
2018-09-19T08:24:38.827Z,2876
2018-09-19T08:25:38.832Z,2996
2018-09-19T08:26:38.837Z,3120
2018-09-19T08:27:38.816Z,3284
2018-09-19T08:28:38.575Z,3500
2018-09-19T08:29:38.829Z,3756
2018-09-19T08:30:38.807Z,4024
2018-09-19T08:31:38.536Z,4300
2018-09-19T08:32:38.793Z,4592
2018-09-19T08:33:38.552Z,4916
2018-09-19T08:34:38.785Z,5280
2018-09-19T08:35:38.261Z,5664
2018-09-19T08:36:38.790Z,6036
2018-09-19T08:37:38.532Z,6332
2018-09-19T08:38:38.765Z,6548
2018-09-19T08:39:38.762Z,6708
2018-09-19T08:40:38.757Z,6824
2018-09-19T08:41:38.758Z,6904
2018-09-19T08:42:38.493Z,6948
2018-09-19T08:43:38.748Z,6952
2018-09-19T08:44:38.807Z,6940
2018-09-19T08:45:38.745Z,7008
2018-09-19T08:46:38.740Z,7112
2018-09-19T08:47:38.719Z,7272
2018-09-19T08:48:38.734Z,7412
2018-09-19T08:49:38.716Z,7536
2018-09-19T08:50:39.074Z,7636
2018-09-19T08:51:38.710Z,7716
2018-09-19T08:52:38.723Z,7792
2018-09-19T08:53:38.709Z,7916
2018-09-19T08:54:38.700Z,8108
2018-09-19T08:55:38.707Z,8312
2018-09-19T08:56:38.707Z,8464
2018-09-19T08:57:38.695Z,8500
2018-09-19T08:58:38.681Z,8416
2018-09-19T08:59:38.427Z,8308
2018-09-19T09:00:38.684Z,8252
2018-09-19T09:01:38.165Z,8216
2018-09-19T09:02:38.414Z,8180
2018-09-19T09:03:38.681Z,8116
2018-09-19T09:04:38.681Z,8032
2018-09-19T09:05:38.498Z,7948
2018-09-19T09:06:38.665Z,7852
2018-09-19T09:07:38.403Z,7788
2018-09-19T09:08:38.657Z,7748
2018-09-19T09:09:38.657Z,7728
2018-09-19T09:10:38.685Z,7724
2018-09-19T09:11:38.440Z,7676
2018-09-19T09:12:38.740Z,7604
2018-09-19T09:13:38.719Z,7540
2018-09-19T09:14:38.649Z,7536
2018-09-19T09:15:38.642Z,7616
2018-09-19T09:16:38.365Z,7728
2018-09-19T09:17:38.365Z,7860
2018-09-19T09:18:38.621Z,7952
2018-09-19T09:19:38.622Z,8004
2018-09-19T09:20:38.685Z,8052
2018-09-19T09:21:38.357Z,8100
2018-09-19T09:22:38.613Z,8148
2018-09-19T09:23:38.613Z,8176
2018-09-19T09:24:38.610Z,8144
2018-09-19T09:25:38.345Z,8052
2018-09-19T09:26:38.393Z,7896
2018-09-19T09:27:38.605Z,7692
2018-09-19T09:28:38.332Z,7480
2018-09-19T09:29:38.605Z,7276
2018-09-19T09:30:38.329Z,7108
2018-09-19T09:31:38.341Z,7016
2018-09-19T09:32:38.340Z,6984
2018-09-19T09:33:38.588Z,7008
2018-09-19T09:34:38.331Z,7092
2018-09-19T09:35:38.580Z,7224
2018-09-19T09:36:38.662Z,7376
2018-09-19T09:37:38.580Z,7540
2018-09-19T09:38:38.571Z,7680
2018-09-19T09:39:38.050Z,7772
2018-09-19T09:40:38.602Z,7824
2018-09-19T09:41:38.597Z,7848
2018-09-19T09:42:38.585Z,7844
2018-09-19T09:43:38.952Z,7804
2018-09-19T09:44:38.301Z,7736
2018-09-19T09:45:38.630Z,7668
2018-09-19T09:46:38.565Z,7632
2018-09-19T09:47:38.560Z,7600
2018-09-19T09:48:38.300Z,7584
2018-09-19T09:49:38.552Z,7596
2018-09-19T09:50:38.544Z,7608
2018-09-19T09:51:38.334Z,7564
2018-09-19T09:52:38.539Z,7460
2018-09-19T09:53:38.034Z,7352
2018-09-19T09:54:38.531Z,7240
2018-09-19T09:55:38.535Z,7156
2018-09-19T09:56:38.533Z,7072
2018-09-19T09:57:38.527Z,7120
2018-09-19T09:58:38.272Z,7076
2018-09-19T09:59:38.262Z,6984
2018-09-19T10:00:38.530Z,6860
2018-09-19T10:01:38.528Z,6852
2018-09-19T10:02:38.261Z,6556
2018-09-19T10:03:38.524Z,6784
2018-09-19T10:04:38.254Z,6848
2018-09-19T10:05:38.513Z,6748
2018-09-19T10:06:38.632Z,6388
2018-09-19T10:07:38.508Z,6164
2018-09-19T10:08:38.536Z,6124
2018-09-19T10:09:38.507Z,5848
2018-09-19T10:10:40.198Z,5628
2018-09-19T10:11:38.244Z,5372
2018-09-19T10:12:38.500Z,5128
2018-09-19T10:13:38.356Z,4908
2018-09-19T10:14:38.493Z,4704
2018-09-19T10:15:37.977Z,4524
2018-09-19T10:16:38.492Z,4368
2018-09-19T10:17:38.507Z,4224
2018-09-19T10:18:38.485Z,4084
2018-09-19T10:19:38.483Z,3948
2018-09-19T10:20:38.492Z,3844
2018-09-19T10:21:38.486Z,3752
2018-09-19T10:22:38.481Z,3656
2018-09-19T10:23:38.220Z,3576
2018-09-19T10:24:38.242Z,3512
2018-09-19T10:25:38.223Z,3444
2018-09-19T10:26:38.215Z,3388
2018-09-19T10:27:38.477Z,3348
2018-09-19T10:28:38.222Z,3300
2018-09-19T10:29:38.431Z,3260
2018-09-19T10:30:38.474Z,3224
2018-09-19T10:31:38.473Z,3204
2018-09-19T10:32:38.466Z,3192
2018-09-19T10:33:38.467Z,3192
2018-09-19T10:34:38.480Z,3184
2018-09-19T10:35:38.673Z,3176
2018-09-19T10:36:38.212Z,3164
2018-09-19T10:37:38.464Z,3152
2018-09-19T10:38:38.209Z,3112
2018-09-19T10:39:38.461Z,3144
2018-09-19T10:40:38.203Z,3160
2018-09-19T10:41:38.205Z,3180
2018-09-19T10:42:38.462Z,3208
2018-09-19T10:43:38.210Z,3220
2018-09-19T10:44:38.462Z,3208
2018-09-19T10:45:38.216Z,3184
2018-09-19T10:46:38.206Z,3144
2018-09-19T10:47:38.206Z,3108
2018-09-19T10:48:38.466Z,3076
2018-09-19T10:49:38.374Z,3072
2018-09-19T10:50:38.200Z,3064
2018-09-19T10:51:38.199Z,3044
2018-09-19T10:52:38.453Z,3020
2018-09-19T10:53:38.524Z,2992
2018-09-19T10:54:38.196Z,2984
2018-09-19T10:55:38.520Z,3004
2018-09-19T10:56:38.458Z,3016
2018-09-19T10:57:38.204Z,3020
2018-09-19T10:58:38.451Z,3004
2018-09-19T10:59:38.448Z,2980
2018-09-19T11:00:38.456Z,2960
2018-09-19T11:01:37.941Z,2948
2018-09-19T11:02:38.459Z,2944
2018-09-19T11:03:38.456Z,2936
2018-09-19T11:04:37.941Z,2932
2018-09-19T11:05:38.450Z,2932
2018-09-19T11:06:38.192Z,2932
2018-09-19T11:07:38.197Z,2928
2018-09-19T11:08:38.192Z,2928
2018-09-19T11:09:38.192Z,2936
2018-09-19T11:10:38.191Z,2936
2018-09-19T11:11:38.457Z,2932
2018-09-19T11:12:38.452Z,2928
2018-09-19T11:13:38.451Z,2920
2018-09-19T11:14:38.447Z,2916
2018-09-19T11:15:38.448Z,2912
2018-09-19T11:16:37.983Z,2908
2018-09-19T11:17:38.466Z,2908
2018-09-19T11:18:38.446Z,2904
2018-09-19T11:19:38.450Z,2908
2018-09-19T11:20:38.191Z,2908
2018-09-19T11:21:38.190Z,2904
2018-09-19T11:22:38.188Z,2900
2018-09-19T11:23:38.449Z,2900
2018-09-19T11:24:38.187Z,2900
2018-09-19T11:25:38.446Z,2900
2018-09-19T11:26:38.442Z,2896
2018-09-19T11:27:38.444Z,2892
2018-09-19T11:28:37.931Z,2892
2018-09-19T11:29:38.446Z,2892
2018-09-19T11:30:38.448Z,2892
2018-09-19T11:31:38.458Z,2888
2018-09-19T11:32:38.452Z,2876
2018-09-19T11:33:38.335Z,2872
2018-09-19T11:34:38.451Z,2872
2018-09-19T11:35:38.449Z,2872
2018-09-19T11:36:38.448Z,2872
2018-09-19T11:37:38.451Z,2872
2018-09-19T11:38:38.195Z,2872
2018-09-19T11:39:38.447Z,2868
2018-09-19T11:40:38.457Z,2864
2018-09-19T11:41:38.450Z,2860
2018-09-19T11:42:38.451Z,2864
2018-09-19T11:43:38.455Z,2868
2018-09-19T11:44:38.201Z,2864
2018-09-19T11:45:38.455Z,2868
2018-09-19T11:46:38.455Z,2864
2018-09-19T11:47:38.453Z,2856
2018-09-19T11:48:38.260Z,2852
2018-09-19T11:49:38.197Z,2852
2018-09-19T11:50:38.456Z,2856
2018-09-19T11:51:38.206Z,2852
2018-09-19T11:52:37.951Z,2852
2018-09-19T11:53:38.205Z,2856
2018-09-19T11:54:38.467Z,2856
2018-09-19T11:55:38.462Z,2852
2018-09-19T11:56:38.461Z,2856
2018-09-19T11:57:38.205Z,2864
2018-09-19T11:58:38.206Z,2868
2018-09-19T11:59:38.206Z,2868
2018-09-19T12:00:38.474Z,2876
2018-09-19T12:01:38.463Z,2888
2018-09-19T12:02:38.466Z,2888
2018-09-19T12:03:38.214Z,2896
2018-09-19T12:04:38.477Z,2900
2018-09-19T12:05:38.209Z,2908
2018-09-19T12:06:38.470Z,2908
2018-09-19T12:07:38.491Z,2904
2018-09-19T12:08:37.958Z,2912
2018-09-19T12:09:37.955Z,2908
2018-09-19T12:10:38.470Z,2908
2018-09-19T12:11:38.473Z,2904
2018-09-19T12:12:38.472Z,2904
2018-09-19T12:13:38.221Z,2904
2018-09-19T12:14:38.498Z,2904
2018-09-19T12:15:38.222Z,2908
2018-09-19T12:16:38.219Z,2912
2018-09-19T12:17:38.479Z,2920
2018-09-19T12:18:38.223Z,2928
2018-09-19T12:19:38.799Z,2936
2018-09-19T12:20:38.487Z,2932
2018-09-19T12:21:38.479Z,2928
2018-09-19T12:22:38.488Z,2928
2018-09-19T12:23:38.484Z,2932
2018-09-19T12:24:38.484Z,2936
2018-09-19T12:25:38.232Z,2940
2018-09-19T12:26:38.684Z,2936
2018-09-19T12:27:38.492Z,2932
2018-09-19T12:28:38.234Z,2924
2018-09-19T12:29:38.494Z,2920
2018-09-19T12:30:38.498Z,2916
2018-09-19T12:31:38.494Z,2904
2018-09-19T12:32:38.490Z,2896
2018-09-19T12:33:38.237Z,2896
2018-09-19T12:34:38.502Z,2892
2018-09-19T12:35:38.504Z,2892
2018-09-19T12:36:38.497Z,2896
2018-09-19T12:37:38.500Z,2896
2018-09-19T12:38:38.499Z,2888
2018-09-19T12:39:38.845Z,2888
2018-09-19T12:40:38.510Z,2892
2018-09-19T12:41:38.502Z,2904
2018-09-19T12:42:38.507Z,2912
2018-09-19T12:43:37.993Z,2916
2018-09-19T12:44:38.513Z,2912
2018-09-19T12:45:38.000Z,2908
2018-09-19T12:46:37.998Z,2920
2018-09-19T12:47:37.999Z,2928
2018-09-19T12:48:38.255Z,2932
2018-09-19T12:49:38.519Z,2936
2018-09-19T12:50:38.260Z,2944
2018-09-19T12:51:38.520Z,2948
2018-09-19T12:52:38.519Z,2956
2018-09-19T12:53:38.007Z,2960
2018-09-19T12:54:38.522Z,2956
2018-09-19T12:55:38.523Z,2960
2018-09-19T12:56:38.532Z,2960
2018-09-19T12:57:38.675Z,2968
2018-09-19T12:58:38.275Z,2968
2018-09-19T12:59:38.532Z,2972
2018-09-19T13:00:38.019Z,2968
2018-09-19T13:01:38.535Z,2988
2018-09-19T13:02:38.532Z,3000
2018-09-19T13:03:38.534Z,3020
2018-09-19T13:04:37.769Z,3020
2018-09-19T13:05:38.542Z,3036
2018-09-19T13:06:38.547Z,3056
2018-09-19T13:07:38.544Z,3076
2018-09-19T13:08:38.222Z,3092
2018-09-19T13:09:38.559Z,3112
2018-09-19T13:10:38.552Z,3120
2018-09-19T13:11:38.309Z,3132
2018-09-19T13:12:38.556Z,3152
2018-09-19T13:13:38.294Z,3168
2018-09-19T13:14:38.298Z,3160
2018-09-19T13:15:38.304Z,3088
2018-09-19T13:16:38.304Z,3076
2018-09-19T13:17:38.561Z,3104
2018-09-19T13:18:38.573Z,3148
2018-09-19T13:19:38.564Z,3180
2018-09-19T13:20:38.571Z,3224
2018-09-19T13:21:38.058Z,3244
2018-09-19T13:22:38.056Z,3272
2018-09-19T13:23:38.312Z,3280
2018-09-19T13:24:38.571Z,3292
2018-09-19T13:25:38.575Z,3308
2018-09-19T13:26:38.589Z,3308
2018-09-19T13:27:38.331Z,3300
2018-09-19T13:28:38.071Z,3312
2018-09-19T13:29:38.585Z,3296
2018-09-19T13:30:38.648Z,3292
2018-09-19T13:31:38.583Z,3272
2018-09-19T13:32:38.330Z,3260
2018-09-19T13:33:38.330Z,3252
2018-09-19T13:34:38.332Z,3232
2018-09-19T13:35:38.595Z,3216
2018-09-19T13:36:38.337Z,3188
2018-09-19T13:37:38.598Z,3148
2018-09-19T13:38:38.599Z,3128
2018-09-19T13:39:38.608Z,3096
2018-09-19T13:40:38.347Z,3068
2018-09-19T13:41:38.089Z,3044
2018-09-19T13:42:38.093Z,3024
2018-09-19T13:43:38.348Z,3000
2018-09-19T13:44:38.610Z,2980
2018-09-19T13:45:38.613Z,2956
2018-09-19T13:46:38.097Z,2936
2018-09-19T13:47:38.624Z,2912
2018-09-19T13:48:38.360Z,2892
2018-09-19T13:49:38.620Z,2880
2018-09-19T13:50:38.625Z,2868
2018-09-19T13:51:38.122Z,2860
2018-09-19T13:52:38.635Z,2860
2018-09-19T13:53:38.376Z,2860
2018-09-19T13:54:38.631Z,2860
2018-09-19T13:55:38.641Z,2848
2018-09-19T13:56:38.378Z,2840
2018-09-19T13:57:38.680Z,2828
2018-09-19T13:58:38.378Z,2828
2018-09-19T13:59:38.645Z,2824
2018-09-19T14:00:38.383Z,2816
2018-09-19T14:01:38.642Z,2808
2018-09-19T14:02:38.388Z,2800
2018-09-19T14:03:38.655Z,2792
2018-09-19T14:04:38.393Z,2780
2018-09-19T14:05:38.651Z,2776
2018-09-19T14:06:38.652Z,2776
2018-09-19T14:07:38.402Z,2776
2018-09-19T14:08:38.398Z,2772
2018-09-19T14:09:38.666Z,2772
2018-09-19T14:10:38.665Z,2776
2018-09-19T14:11:38.728Z,2784
2018-09-19T14:12:38.670Z,2784
2018-09-19T14:13:38.420Z,2788
2018-09-19T14:14:38.153Z,2788
2018-09-19T14:15:38.671Z,2784